createdAt,value
2023-01-23T00:01:14.258Z,-32.97
2023-01-23T00:04:20.034Z,-32.28
2023-01-23T00:07:23.757Z,-31.44
2023-01-23T00:10:27.537Z,-31.11
2023-01-23T00:13:31.763Z,-30.37
2023-01-23T00:16:35.456Z,-30.04
2023-01-23T00:19:38.841Z,-29.56
2023-01-23T00:22:42.482Z,-29.70
2023-01-23T00:25:46.357Z,-29.82
2023-01-23T00:28:51.450Z,-30.05
2023-01-23T00:31:55.728Z,-29.48
2023-01-23T00:35:01.402Z,-28.88
2023-01-23T00:38:05.942Z,-28.07
2023-01-23T00:41:10.054Z,-26.72
2023-01-23T00:44:14.254Z,-26.90
2023-01-23T00:47:17.730Z,-27.42
2023-01-23T00:50:21.846Z,-26.70
2023-01-23T00:53:25.635Z,-26.60
2023-01-23T00:56:29.642Z,-25.55
2023-01-23T00:59:33.838Z,-24.16
2023-01-23T01:02:37.880Z,-23.24
2023-01-23T01:05:41.426Z,-22.84
2023-01-23T01:08:45.741Z,-22.43
2023-01-23T01:11:49.496Z,-22.34
2023-01-23T01:15:13.654Z,-21.98
2023-01-23T01:18:23.207Z,-21.18
2023-01-23T01:21:51.703Z,-20.78
2023-01-23T01:25:18.635Z,-21.21
2023-01-23T01:28:39.683Z,-22.16
2023-01-23T01:31:50.042Z,-22.72
2023-01-23T01:34:58.733Z,-23.40
2023-01-23T01:38:10.656Z,-24.20
2023-01-23T01:41:34.772Z,-23.28
2023-01-23T01:45:01.668Z,-23.13
2023-01-23T01:48:10.438Z,-22.57
2023-01-23T01:51:25.479Z,-22.25
2023-01-23T01:54:44.167Z,-21.82
2023-01-23T01:58:01.313Z,-22.00
2023-01-23T02:01:13.008Z,-22.69
2023-01-23T02:04:17.279Z,-23.71
2023-01-23T02:07:48.501Z,-23.44
2023-01-23T02:11:16.139Z,-21.71
2023-01-23T02:14:53.570Z,-22.04
2023-01-23T02:18:06.217Z,-21.77
2023-01-23T02:21:30.333Z,-22.48
2023-01-23T02:24:38.074Z,-22.93
2023-01-23T02:27:41.456Z,-21.85
2023-01-23T02:30:51.341Z,-21.75
2023-01-23T02:33:59.561Z,-20.92
2023-01-23T02:37:03.847Z,-21.27
2023-01-23T02:40:07.699Z,-22.29
2023-01-23T02:43:14.485Z,-21.74
2023-01-23T02:46:25.114Z,-21.82
2023-01-23T02:49:29.964Z,-21.53
2023-01-23T02:52:36.429Z,-21.22
2023-01-23T02:55:44.178Z,-20.89
2023-01-23T02:59:07.574Z,-21.29
2023-01-23T03:02:12.089Z,-21.91
2023-01-23T03:05:16.490Z,-22.02
2023-01-23T03:08:20.973Z,-21.61
2023-01-23T03:11:26.423Z,-22.74
2023-01-23T03:14:30.956Z,-22.38
2023-01-23T03:17:35.858Z,-22.14
2023-01-23T03:20:40.693Z,-21.52
2023-01-23T03:23:47.476Z,-21.78
2023-01-23T03:26:52.674Z,-22.97
2023-01-23T03:30:17.800Z,-21.58
2023-01-23T03:33:21.991Z,-20.96
2023-01-23T03:36:27.018Z,-21.50
2023-01-23T03:39:50.096Z,-23.09
2023-01-23T03:42:56.114Z,-21.87
2023-01-23T03:46:04.039Z,-23.03
2023-01-23T03:49:08.913Z,-23.13
2023-01-23T03:52:13.358Z,-21.78
2023-01-23T03:55:17.525Z,-21.65
2023-01-23T03:58:23.365Z,-20.83
2023-01-23T04:01:27.572Z,-20.67
2023-01-23T04:04:33.100Z,-20.69
2023-01-23T04:07:37.749Z,-20.28
2023-01-23T04:10:41.959Z,-20.35
2023-01-23T04:13:51.141Z,-20.11
2023-01-23T04:16:56.020Z,-20.35
2023-01-23T04:20:00.338Z,-20.32
2023-01-23T04:23:05.245Z,-20.38
2023-01-23T04:26:09.545Z,-20.77
2023-01-23T04:29:14.097Z,-20.63
2023-01-23T04:32:18.221Z,-20.56
2023-01-23T04:35:23.259Z,-21.17
2023-01-23T04:38:29.287Z,-20.74
2023-01-23T04:41:35.353Z,-20.39
2023-01-23T04:44:44.844Z,-20.51
2023-01-23T04:48:27.124Z,-20.03
2023-01-23T04:51:31.227Z,-20.33
2023-01-23T04:54:35.907Z,-20.30
2023-01-23T04:57:40.725Z,-20.36
2023-01-23T05:00:52.635Z,-20.92
2023-01-23T05:04:03.560Z,-20.62
2023-01-23T05:07:07.662Z,-21.37
2023-01-23T05:10:16.885Z,-21.08
2023-01-23T05:13:21.324Z,-21.62
2023-01-23T05:16:25.385Z,-21.30
2023-01-23T05:19:51.714Z,-21.20
2023-01-23T05:22:58.413Z,-20.75
2023-01-23T05:26:14.545Z,-21.12
2023-01-23T05:29:59.317Z,-20.73
2023-01-23T05:37:48.224Z,-21.53
2023-01-23T05:41:33.007Z,-21.14
2023-01-23T05:45:51.295Z,-21.04
2023-01-23T05:49:50.639Z,-20.55
2023-01-23T05:53:32.437Z,-20.12
2023-01-23T05:56:58.317Z,-20.52
2023-01-23T06:27:11.366Z,-21.62
2023-01-23T06:30:28.309Z,-21.57
2023-01-23T06:33:38.654Z,-21.76
2023-01-23T06:36:54.124Z,-21.62
2023-01-23T06:39:57.843Z,-22.25
2023-01-23T06:43:01.908Z,-22.37
2023-01-23T06:46:06.012Z,-22.50
2023-01-23T06:49:09.695Z,-22.75
2023-01-23T06:52:16.265Z,-22.75
2023-01-23T06:55:46.856Z,-22.93
2023-01-23T06:58:52.355Z,-22.91
2023-01-23T07:02:09.072Z,-22.77
2023-01-23T07:05:44.100Z,-23.26
2023-01-23T07:08:52.391Z,-22.68
2023-01-23T07:11:56.726Z,-23.10
2023-01-23T07:15:01.416Z,-23.36
2023-01-23T07:18:12.302Z,-23.43
2023-01-23T07:21:18.427Z,-23.68
2023-01-23T07:24:22.479Z,-23.40
2023-01-23T07:27:27.677Z,-23.45
2023-01-23T07:30:34.047Z,-24.05
2023-01-23T07:33:48.118Z,-24.26
2023-01-23T07:36:54.407Z,-24.53
2023-01-23T07:39:58.119Z,-24.42
2023-01-23T07:43:06.287Z,-25.25
2023-01-23T07:46:10.418Z,-25.54
2023-01-23T07:49:19.316Z,-25.22
2023-01-23T07:52:27.942Z,-25.21
2023-01-23T07:55:39.463Z,-25.87
2023-01-23T07:58:46.068Z,-25.74
2023-01-23T08:01:59.184Z,-25.99
2023-01-23T08:05:03.259Z,-26.07
2023-01-23T08:08:13.565Z,-26.24
2023-01-23T08:11:18.379Z,-26.36
2023-01-23T08:14:24.091Z,-26.71
2023-01-23T08:17:41.019Z,-26.27
2023-01-23T08:20:47.542Z,-26.05
2023-01-23T08:23:53.621Z,-25.92
2023-01-23T08:27:01.401Z,-26.13
2023-01-23T08:30:07.672Z,-26.12
2023-01-23T08:36:42.862Z,-26.25
2023-01-23T08:39:46.981Z,-26.35
2023-01-23T08:42:53.350Z,-25.96
2023-01-23T08:45:58.474Z,-25.74
2023-01-23T08:49:06.644Z,-25.94
2023-01-23T08:52:13.384Z,-26.03
2023-01-23T08:55:20.329Z,-25.70
2023-01-23T08:58:24.492Z,-25.46
2023-01-23T09:01:29.101Z,-26.33
2023-01-23T09:04:36.132Z,-26.21
2023-01-23T09:07:39.987Z,-26.60
2023-01-23T09:10:44.102Z,-26.67
2023-01-23T09:13:54.318Z,-26.58
2023-01-23T09:17:00.933Z,-26.33
2023-01-23T09:20:08.232Z,-26.22
2023-01-23T09:23:15.961Z,-26.30
2023-01-23T09:26:25.615Z,-26.72
2023-01-23T09:29:34.422Z,-26.66
2023-01-23T09:32:59.321Z,-27.37
2023-01-23T09:36:10.148Z,-27.23
2023-01-23T09:39:14.802Z,-27.64
2023-01-23T09:42:22.131Z,-27.85
2023-01-23T09:45:28.963Z,-27.71
2023-01-23T09:48:41.578Z,-27.94
2023-01-23T09:51:53.586Z,-27.84
2023-01-23T09:54:59.568Z,-28.06
2023-01-23T09:58:05.302Z,-28.10
2023-01-23T10:01:16.148Z,-28.20
2023-01-23T10:04:24.096Z,-28.36
2023-01-23T10:07:30.704Z,-28.30
2023-01-23T10:10:55.541Z,-28.29
2023-01-23T10:14:22.717Z,-28.87
2023-01-23T10:17:34.757Z,-28.51
2023-01-23T10:20:47.664Z,-28.49
2023-01-23T10:24:00.996Z,-29.08
2023-01-23T10:27:33.522Z,-29.09
2023-01-23T10:30:39.458Z,-29.08
2023-01-23T10:33:50.935Z,-29.31
2023-01-23T10:36:57.785Z,-29.39
2023-01-23T10:40:57.291Z,-29.46
2023-01-23T10:44:34.060Z,-29.57
2023-01-23T10:48:16.114Z,-29.20
2023-01-23T10:55:30.188Z,-29.21
2023-01-23T10:58:50.722Z,-29.33
2023-01-23T11:02:36.899Z,-29.23
2023-01-23T11:09:36.148Z,-28.69
2023-01-23T11:12:55.709Z,-28.64
2023-01-23T11:16:17.243Z,-28.94
2023-01-23T11:21:57.150Z,-28.84
2023-01-23T11:36:33.416Z,-28.77
2023-01-23T11:39:55.747Z,-28.86
2023-01-23T11:43:16.912Z,-28.81
2023-01-23T11:46:44.523Z,-28.96
2023-01-23T11:49:56.847Z,-29.09
2023-01-23T11:53:03.938Z,-29.14
2023-01-23T11:56:24.371Z,-29.06
2023-01-23T11:59:39.501Z,-29.20
2023-01-23T12:02:48.963Z,-29.16
2023-01-23T12:09:48.106Z,-29.03
2023-01-23T12:12:52.429Z,-28.78
2023-01-23T12:16:05.849Z,-28.90
2023-01-23T12:19:25.661Z,-29.10
2023-01-23T12:22:41.170Z,-28.93
2023-01-23T12:26:05.480Z,-29.20
2023-01-23T12:29:27.793Z,-29.16
2023-01-23T12:32:35.034Z,-29.35
2023-01-23T12:35:56.957Z,-29.35
2023-01-23T12:39:11.374Z,-29.13
2023-01-23T12:42:27.368Z,-29.40
2023-01-23T12:45:32.310Z,-29.21
2023-01-23T12:48:40.781Z,-29.13
2023-01-23T12:51:47.904Z,-30.08
2023-01-23T12:55:01.780Z,-29.88
2023-01-23T12:58:09.439Z,-29.46
2023-01-23T13:01:23.142Z,-29.17
2023-01-23T13:04:37.804Z,-29.08
2023-01-23T13:07:51.174Z,-29.44
2023-01-23T13:11:24.068Z,-29.50
2023-01-23T13:14:47.702Z,-29.86
2023-01-23T13:18:00.533Z,-29.90
2023-01-23T13:21:23.905Z,-29.49
2023-01-23T13:24:54.203Z,-29.12
2023-01-23T13:27:59.298Z,-29.18
2023-01-23T13:31:04.541Z,-29.54
2023-01-23T13:34:18.005Z,-29.43
2023-01-23T13:37:32.456Z,-29.63
2023-01-23T13:40:36.904Z,-30.01
2023-01-23T13:43:44.833Z,-29.91
2023-01-23T14:22:01.312Z,-29.65
2023-01-23T14:25:16.047Z,-29.64
2023-01-23T14:28:22.698Z,-29.55
2023-01-23T14:31:28.848Z,-29.62
2023-01-23T14:34:40.209Z,-30.04
2023-01-23T14:37:44.609Z,-30.32
2023-01-23T14:40:51.108Z,-30.64
2023-01-23T14:43:57.169Z,-30.64
2023-01-23T14:47:02.694Z,-30.72
2023-01-23T14:50:33.209Z,-30.36
2023-01-23T14:53:40.619Z,-30.34
2023-01-23T14:56:45.029Z,-30.67
2023-01-23T14:59:50.091Z,-31.02
2023-01-23T15:02:55.319Z,-31.10
2023-01-23T15:06:00.254Z,-30.86
2023-01-23T15:09:16.551Z,-30.59
2023-01-23T15:12:20.771Z,-30.89
2023-01-23T15:15:26.086Z,-31.25
2023-01-23T15:18:31.885Z,-31.79
2023-01-23T15:21:42.773Z,-31.62
2023-01-23T15:24:47.960Z,-31.64
2023-01-23T15:27:54.938Z,-31.33
2023-01-23T15:30:59.274Z,-31.73
2023-01-23T15:34:15.522Z,-31.31
2023-01-23T15:37:24.456Z,-31.41
2023-01-23T15:40:29.176Z,-30.97
2023-01-23T15:43:33.369Z,-31.40
2023-01-23T15:46:37.733Z,-31.48
2023-01-23T15:49:42.099Z,-31.92
2023-01-23T15:56:30.421Z,-31.88
2023-01-23T15:59:35.067Z,-31.74
2023-01-23T16:02:47.262Z,-31.06
2023-01-23T16:05:59.660Z,-31.03
2023-01-23T16:09:05.976Z,-31.06
2023-01-23T16:12:14.553Z,-31.16
2023-01-23T16:15:30.073Z,-30.86
2023-01-23T16:18:34.250Z,-30.80
2023-01-23T16:21:38.889Z,-31.27
2023-01-23T16:24:43.584Z,-30.88
2023-01-23T16:27:50.145Z,-31.11
2023-01-23T16:30:57.014Z,-31.36
2023-01-23T16:34:01.870Z,-31.48
2023-01-23T16:37:06.434Z,-31.23
2023-01-23T16:40:16.708Z,-30.95
2023-01-23T16:43:23.232Z,-30.95
2023-01-23T16:46:27.603Z,-30.95
2023-01-23T16:49:43.128Z,-30.82
2023-01-23T16:53:00.801Z,-30.96
2023-01-23T16:59:38.842Z,-30.91
2023-01-23T17:02:43.538Z,-30.77
2023-01-23T17:05:49.935Z,-30.92
2023-01-23T17:08:54.442Z,-31.42
2023-01-23T17:11:58.738Z,-31.50
2023-01-23T17:15:06.371Z,-31.62
2023-01-23T17:18:21.083Z,-31.56
2023-01-23T17:21:28.573Z,-31.70
2023-01-23T17:24:35.246Z,-31.87
2023-01-23T17:27:44.799Z,-31.88
2023-01-23T17:30:51.594Z,-31.77
2023-01-23T17:33:56.643Z,-31.59
2023-01-23T17:37:00.831Z,-31.40
2023-01-23T17:40:05.145Z,-31.21
2023-01-23T17:43:10.702Z,-31.33
2023-01-23T17:46:33.801Z,-31.37
2023-01-23T17:49:43.409Z,-31.23
2023-01-23T17:52:47.920Z,-31.65
2023-01-23T17:55:59.343Z,-31.43
2023-01-23T17:59:06.448Z,-31.42
2023-01-23T18:02:24.884Z,-31.72
2023-01-23T18:05:29.331Z,-31.65
2023-01-23T18:08:33.558Z,-31.26
2023-01-23T18:11:39.236Z,-30.96
2023-01-23T18:14:48.338Z,-30.76
2023-01-23T18:18:04.643Z,-31.21
2023-01-23T18:21:18.687Z,-31.39
2023-01-23T18:24:33.919Z,-31.14
2023-01-23T18:27:40.158Z,-31.17
2023-01-23T18:30:51.164Z,-31.15
2023-01-23T18:33:55.319Z,-31.09
2023-01-23T18:37:14.741Z,-31.04
2023-01-23T18:40:22.033Z,-30.92
2023-01-23T18:43:35.533Z,-30.77
2023-01-23T18:46:39.779Z,-30.49
2023-01-23T18:49:44.519Z,-30.27
2023-01-23T18:52:54.812Z,-30.30
2023-01-23T18:56:14.994Z,-30.47
2023-01-23T18:59:28.178Z,-30.43
2023-01-23T19:02:32.448Z,-30.69
2023-01-23T19:05:36.848Z,-30.10
2023-01-23T19:08:41.669Z,-29.96
2023-01-23T19:11:51.949Z,-29.85
2023-01-23T19:15:20.842Z,-29.55
2023-01-23T19:18:44.944Z,-29.56
2023-01-23T19:21:49.132Z,-30.08
2023-01-23T19:24:54.941Z,-30.09
2023-01-23T19:28:02.123Z,-29.71
2023-01-23T19:31:26.835Z,-29.62
2023-01-23T19:34:31.704Z,-29.68
2023-01-23T19:37:40.806Z,-29.93
2023-01-23T19:40:46.464Z,-30.00
2023-01-23T19:43:51.994Z,-29.96
2023-01-23T19:46:56.233Z,-30.26
2023-01-23T19:50:00.528Z,-30.56
2023-01-23T19:53:08.037Z,-30.81
2023-01-23T19:56:18.133Z,-30.80
2023-01-23T19:59:28.110Z,-30.77
2023-01-23T20:02:32.226Z,-30.75
2023-01-23T20:05:36.629Z,-30.89
2023-01-23T20:08:40.742Z,-31.07
2023-01-23T20:11:45.632Z,-31.03
2023-01-23T20:14:49.607Z,-31.08
2023-01-23T20:17:53.859Z,-31.18
2023-01-23T20:21:00.919Z,-31.09
2023-01-23T20:24:06.165Z,-30.99
2023-01-23T20:27:11.640Z,-30.85
2023-01-23T20:30:17.508Z,-30.80
2023-01-23T20:33:22.887Z,-30.89
2023-01-23T20:36:27.141Z,-31.30
2023-01-23T20:39:31.154Z,-31.37
2023-01-23T20:42:35.339Z,-31.11
2023-01-23T20:45:45.896Z,-31.12
2023-01-23T20:48:49.898Z,-31.71
2023-01-23T20:51:54.025Z,-31.76
2023-01-23T20:54:58.212Z,-32.08
2023-01-23T20:58:20.587Z,-31.99
2023-01-23T21:01:26.447Z,-32.45
2023-01-23T21:04:31.802Z,-31.96
2023-01-23T21:11:12.569Z,-32.61
2023-01-23T21:14:24.525Z,-32.78
2023-01-23T21:17:30.810Z,-32.98
2023-01-23T21:20:39.279Z,-33.05
2023-01-23T21:23:49.676Z,-33.21
2023-01-23T21:26:53.770Z,-33.43
2023-01-23T21:29:57.926Z,-33.50
2023-01-23T21:33:01.587Z,-33.10
2023-01-23T21:36:05.320Z,-32.75
2023-01-23T21:39:10.516Z,-33.02
2023-01-23T21:42:14.262Z,-33.49
2023-01-23T21:45:21.227Z,-33.51
2023-01-23T21:48:25.803Z,-33.43
2023-01-23T21:51:30.096Z,-33.34
2023-01-23T21:54:34.147Z,-33.53
2023-01-23T21:57:54.623Z,-33.48
2023-01-23T22:14:38.509Z,-33.84
2023-01-23T22:17:43.434Z,-33.45
2023-01-23T22:20:47.783Z,-33.96
2023-01-23T22:23:55.220Z,-34.80
2023-01-23T22:27:00.196Z,-34.46
2023-01-23T22:30:05.740Z,-34.13
2023-01-23T22:33:10.671Z,-33.60
2023-01-23T22:36:20.597Z,-34.22
2023-01-23T22:39:24.585Z,-33.52
2023-01-23T22:42:28.946Z,-33.46
2023-01-23T22:45:33.647Z,-33.33
2023-01-23T22:48:39.659Z,-33.42
2023-01-23T22:51:44.077Z,-33.20
2023-01-23T22:54:47.993Z,-32.89
2023-01-23T22:57:53.459Z,-32.83
2023-01-23T23:01:01.045Z,-33.10
2023-01-23T23:04:05.672Z,-32.53
2023-01-23T23:07:10.109Z,-32.42
2023-01-23T23:10:14.593Z,-32.12
2023-01-23T23:13:18.644Z,-32.05
2023-01-23T23:16:29.792Z,-32.10
2023-01-23T23:19:52.880Z,-31.76
2023-01-23T23:22:59.960Z,-31.70
2023-01-23T23:26:13.914Z,-31.33
2023-01-23T23:29:38.898Z,-31.11
2023-01-23T23:32:47.460Z,-31.79
2023-01-23T23:35:52.187Z,-31.47
2023-01-23T23:38:59.915Z,-31.30
2023-01-23T23:42:06.726Z,-31.01
2023-01-23T23:45:13.655Z,-30.86
2023-01-23T23:48:17.988Z,-30.87
2023-01-23T23:51:29.094Z,-30.56
2023-01-23T23:54:42.479Z,-30.62
2023-01-23T23:57:51.772Z,-29.86
